Ramey, Pennsylvania
Current Conditions -  °F | °C
As of 11:54 PM on Sunday 19 Oct 2014 (Local Time) from KFIG Reporting Station
Clear Clear  
Wind Chill: 36°   Ceiling: Unl
Heat Index: 36°   Visibility: 10mi
Dew Point: 32°   Wind: 3mph
Humidity: 86%   Direction: 220°SW
Pressure: 30.06"   Gusts: NA
Location:  40.8°N, 78.4°W
Report Text: KFIG 200354Z AUTO 22003KT 10SM CLR 02/00 A3006 RMK AO2 SLP189 T00220000
Loading
Personal Weather Stations






























Interactive Weather Map
Tropical Storm Tracking
New forecast layout! Learn more

10-Day Weather Forecast

Advertisements
Track Severe Weather on mobile